createdAt,value
2016-02-28T12:31:23.380Z,305
2016-02-28T12:32:23.321Z,315
2016-02-28T12:33:23.291Z,305
2016-02-28T12:34:23.294Z,310
2016-02-28T12:35:23.282Z,310
2016-02-28T12:36:23.285Z,315
2016-02-28T12:37:23.271Z,315
2016-02-28T12:38:23.305Z,310
2016-02-28T12:39:23.293Z,310
2016-02-28T12:40:23.279Z,310
2016-02-28T12:41:23.673Z,310
2016-02-28T12:42:23.332Z,320
2016-02-28T12:43:23.271Z,305
2016-02-28T12:44:23.290Z,300
2016-02-28T12:45:23.261Z,305
2016-02-28T12:46:23.264Z,325
2016-02-28T12:47:23.267Z,290
2016-02-28T12:48:23.270Z,265
2016-02-28T12:49:23.273Z,245
2016-02-28T12:50:23.259Z,350
2016-02-28T12:51:23.262Z,325
2016-02-28T12:52:23.281Z,295
2016-02-28T12:53:23.253Z,225
2016-02-28T12:54:23.270Z,300
2016-02-28T12:55:23.257Z,280
2016-02-28T12:56:23.260Z,280
2016-02-28T12:57:23.263Z,280
2016-02-28T12:58:23.266Z,275
2016-02-28T12:59:23.253Z,280
2016-02-28T13:00:23.271Z,280
2016-02-28T13:01:23.274Z,270
2016-02-28T13:02:23.276Z,310
2016-02-28T13:03:23.279Z,325
2016-02-28T13:04:23.282Z,285
2016-02-28T13:05:23.110Z,240
2016-02-28T13:06:23.274Z,100
2016-02-28T13:07:23.266Z,160
2016-02-28T13:08:23.250Z,155
2016-02-28T13:09:23.268Z,160
2016-02-28T13:10:23.665Z,145
2016-02-28T13:11:23.258Z,145
2016-02-28T13:12:23.277Z,145
2016-02-28T13:13:23.279Z,155
2016-02-28T13:14:23.251Z,155
2016-02-28T13:15:23.237Z,175
2016-02-28T13:16:23.240Z,200
2016-02-28T13:17:23.244Z,245
2016-02-28T13:18:23.215Z,220
2016-02-28T13:19:23.217Z,120
2016-02-28T13:20:23.204Z,120
2016-02-28T13:21:23.206Z,85
2016-02-28T13:22:23.210Z,155
2016-02-28T13:23:23.198Z,160
2016-02-28T13:24:23.200Z,120
2016-02-28T13:25:23.187Z,125
2016-02-28T13:26:23.205Z,120
2016-02-28T13:27:23.162Z,125
2016-02-28T13:28:23.164Z,115
2016-02-28T13:29:23.166Z,85
2016-02-28T13:30:23.138Z,135
2016-02-28T13:31:23.140Z,170
2016-02-28T13:32:23.127Z,175
2016-02-28T13:33:23.114Z,165
2016-02-28T13:34:23.117Z,180
2016-02-28T13:35:23.136Z,190
2016-02-28T13:36:23.122Z,180
2016-02-28T13:37:23.125Z,165
2016-02-28T13:38:23.097Z,165
2016-02-28T13:39:23.084Z,145
2016-02-28T13:40:23.102Z,135
2016-02-28T13:41:23.043Z,100
2016-02-28T13:42:23.123Z,170
2016-02-28T13:43:23.048Z,190
2016-02-28T13:44:23.035Z,195
2016-02-28T13:45:23.054Z,195
2016-02-28T13:46:23.024Z,195
2016-02-28T13:47:23.074Z,210
2016-02-28T13:48:22.998Z,230
2016-02-28T13:49:23.001Z,240
2016-02-28T13:50:23.004Z,245
2016-02-28T13:51:22.991Z,255
2016-02-28T13:52:23.010Z,250
2016-02-28T13:53:22.981Z,215
2016-02-28T13:54:22.968Z,260
2016-02-28T13:55:22.955Z,290
2016-02-28T13:56:22.958Z,290
2016-02-28T13:57:22.961Z,295
2016-02-28T13:58:22.948Z,220
2016-02-28T13:59:22.966Z,240
2016-02-28T14:00:22.922Z,180
2016-02-28T14:01:22.924Z,120
2016-02-28T14:02:22.927Z,85
2016-02-28T14:03:22.898Z,80
2016-02-28T14:04:22.901Z,135
2016-02-28T14:05:22.888Z,75
2016-02-28T14:06:22.891Z,75
2016-02-28T14:07:22.893Z,75
2016-02-28T14:08:22.866Z,230
2016-02-28T14:09:22.868Z,220
2016-02-28T14:10:22.871Z,215
2016-02-28T14:11:22.826Z,190
2016-02-28T14:12:22.844Z,180
2016-02-28T14:13:22.863Z,175
2016-02-28T14:14:22.834Z,180
2016-02-28T14:15:22.837Z,160
2016-02-28T14:16:22.808Z,155
2016-02-28T14:17:22.810Z,180
2016-02-28T14:18:22.814Z,205
2016-02-28T14:19:22.816Z,195
2016-02-28T14:20:22.804Z,220
2016-02-28T14:21:22.790Z,215
2016-02-28T14:22:22.778Z,110
2016-02-28T14:23:22.796Z,245
2016-02-28T14:24:22.830Z,115
2016-02-28T14:25:22.755Z,235
2016-02-28T14:26:22.742Z,235
2016-02-28T14:27:22.775Z,215
2016-02-28T14:28:22.715Z,135
2016-02-28T14:29:22.718Z,105
2016-02-28T14:30:22.924Z,245
2016-02-28T14:31:22.708Z,250
2016-02-28T14:32:23.242Z,260
2016-02-28T14:33:22.728Z,270
2016-02-28T14:34:22.716Z,285
2016-02-28T14:35:22.766Z,275
2016-02-28T14:36:22.691Z,240
2016-02-28T14:37:22.677Z,235
2016-02-28T14:38:22.649Z,240
2016-02-28T14:39:22.666Z,90
2016-02-28T14:40:22.654Z,250
2016-02-28T14:41:22.642Z,225
2016-02-28T14:42:22.644Z,230
2016-02-28T14:43:22.646Z,205
2016-02-28T14:44:22.633Z,195
2016-02-28T14:45:22.635Z,180
2016-02-28T14:46:22.624Z,150
2016-02-28T14:47:22.611Z,95
2016-02-28T14:48:22.660Z,55
2016-02-28T14:49:22.632Z,60
2016-02-28T14:50:22.603Z,65
2016-02-28T14:51:22.606Z,205
2016-02-28T14:52:22.577Z,195
2016-02-28T14:53:22.596Z,185
2016-02-28T14:54:22.567Z,190
2016-02-28T14:55:22.601Z,190
2016-02-28T14:56:22.556Z,185
2016-02-28T14:57:22.575Z,180
2016-02-28T14:58:22.546Z,170
2016-02-28T14:59:22.565Z,170
2016-02-28T15:00:22.536Z,135
2016-02-28T15:01:22.523Z,100
2016-02-28T15:02:22.556Z,185
2016-02-28T15:03:22.529Z,180
2016-02-28T15:04:22.547Z,190
2016-02-28T15:05:22.487Z,190
2016-02-28T15:06:22.521Z,185
2016-02-28T15:07:22.525Z,150
2016-02-28T15:08:22.479Z,140
2016-02-28T15:09:22.358Z,115
2016-02-28T15:10:22.485Z,75
2016-02-28T15:11:22.472Z,105
2016-02-28T15:12:22.458Z,105
2016-02-28T15:13:22.477Z,110
2016-02-28T15:14:22.511Z,115
2016-02-28T15:15:22.452Z,60
2016-02-28T15:16:22.454Z,65
2016-02-28T15:17:22.488Z,55
2016-02-28T15:18:22.443Z,65
2016-02-28T15:19:22.447Z,55
2016-02-28T15:20:22.418Z,75
2016-02-28T15:21:22.421Z,65
2016-02-28T15:22:22.423Z,95
2016-02-28T15:23:22.442Z,90
2016-02-28T15:24:22.445Z,95
2016-02-28T15:25:22.385Z,85
2016-02-28T15:26:22.434Z,85
2016-02-28T15:27:22.406Z,100
2016-02-28T15:28:22.392Z,95
2016-02-28T15:29:22.379Z,80
2016-02-28T15:30:22.367Z,90
2016-02-28T15:31:22.369Z,95
2016-02-28T15:32:22.372Z,105
2016-02-28T15:33:22.344Z,115
2016-02-28T15:34:22.362Z,115
2016-02-28T15:35:22.350Z,115
2016-02-28T15:36:22.352Z,115
2016-02-28T15:37:22.386Z,110
2016-02-28T15:38:22.358Z,105
2016-02-28T15:39:22.375Z,105
2016-02-28T15:40:22.316Z,105
2016-02-28T15:41:22.318Z,115
2016-02-28T15:42:22.305Z,105
2016-02-28T15:43:22.308Z,95
2016-02-28T15:44:22.295Z,100
2016-02-28T15:45:22.282Z,95
2016-02-28T15:46:22.269Z,95
2016-02-28T15:47:22.288Z,75
2016-02-28T15:48:22.274Z,55
2016-02-28T15:49:22.246Z,45
2016-02-28T15:50:22.248Z,45
2016-02-28T15:51:22.251Z,40
2016-02-28T15:52:22.239Z,40
2016-02-28T15:53:22.210Z,45
2016-02-28T15:54:22.259Z,75
2016-02-28T15:55:22.215Z,70
2016-02-28T15:56:22.218Z,70
2016-02-28T15:57:22.221Z,70
2016-02-28T15:58:22.223Z,60
2016-02-28T15:59:22.195Z,65
2016-02-28T16:00:22.198Z,60
2016-02-28T16:01:22.185Z,60
2016-02-28T16:02:22.203Z,55
2016-02-28T16:03:22.175Z,50
2016-02-28T16:04:22.178Z,55
2016-02-28T16:05:22.148Z,60
2016-02-28T16:06:22.166Z,55
2016-02-28T16:07:22.154Z,55
2016-02-28T16:08:22.141Z,55
2016-02-28T16:09:22.175Z,55
2016-02-28T16:10:22.131Z,55
2016-02-28T16:11:22.180Z,55
2016-02-28T16:12:22.120Z,50
2016-02-28T16:13:22.123Z,50
2016-02-28T16:14:22.658Z,50
2016-02-28T16:15:22.035Z,45
2016-02-28T16:16:22.194Z,40
2016-02-28T16:17:22.118Z,35
2016-02-28T16:18:22.090Z,35
2016-02-28T16:19:22.061Z,30
2016-02-28T16:20:22.080Z,30
2016-02-28T16:21:22.082Z,30
2016-02-28T16:22:22.069Z,25
2016-02-28T16:23:22.087Z,25
2016-02-28T16:24:22.059Z,25
2016-02-28T16:25:22.077Z,25
2016-02-28T16:26:22.112Z,25
2016-02-28T16:27:22.035Z,25
2016-02-28T16:28:22.007Z,25
2016-02-28T16:29:22.009Z,25
2016-02-28T16:30:22.028Z,20
2016-02-28T16:31:22.000Z,20
2016-02-28T16:32:22.018Z,20
2016-02-28T16:33:22.005Z,20
2016-02-28T16:34:22.008Z,20
2016-02-28T16:35:21.979Z,20
2016-02-28T16:36:21.981Z,15
2016-02-28T16:37:21.969Z,15
2016-02-28T16:38:22.003Z,15
2016-02-28T16:39:21.958Z,15
2016-02-28T16:40:22.071Z,15
2016-02-28T16:41:21.980Z,15
2016-02-28T16:42:21.919Z,15
2016-02-28T16:43:21.938Z,10
2016-02-28T16:44:21.910Z,10
2016-02-28T16:45:21.897Z,10
2016-02-28T16:46:21.884Z,10
2016-02-28T16:47:21.871Z,10
2016-02-28T16:48:21.873Z,10
2016-02-28T16:49:21.829Z,10
2016-02-28T16:50:21.833Z,10
2016-02-28T16:51:21.850Z,10
2016-02-28T16:52:21.838Z,10
2016-02-28T16:53:21.841Z,5
2016-02-28T16:54:21.779Z,5
2016-02-28T16:55:21.776Z,5
2016-02-28T16:56:21.786Z,5
2016-02-28T16:57:21.717Z,5
2016-02-28T16:58:21.727Z,5
2016-02-28T16:59:21.705Z,5
2016-02-28T17:00:21.659Z,5
2016-02-28T17:01:21.689Z,5
2016-02-28T17:02:21.658Z,5
2016-02-28T17:03:21.625Z,5
2016-02-28T17:04:21.687Z,5
2016-02-28T17:05:21.455Z,0
2016-02-28T17:06:21.618Z,0
2016-02-28T17:07:21.587Z,0
2016-02-28T17:08:21.574Z,0
2016-02-28T17:09:21.576Z,0
2016-02-28T17:10:21.548Z,0
2016-02-28T17:11:21.581Z,0
2016-02-28T17:12:21.520Z,0
2016-02-28T17:13:21.600Z,0
2016-02-28T17:14:21.509Z,0
2016-02-28T17:15:21.526Z,0
2016-02-28T17:16:21.482Z,0
2016-02-28T17:17:21.500Z,0
2016-02-28T17:18:21.534Z,0
2016-02-28T17:19:21.505Z,0
2016-02-28T17:20:21.429Z,0
2016-02-28T17:21:21.449Z,0
2016-02-28T17:22:21.419Z,0
2016-02-28T17:23:21.422Z,0
2016-02-28T17:24:21.424Z,0
2016-02-28T17:25:21.396Z,0
2016-02-28T17:26:21.399Z,0
2016-02-28T17:27:21.371Z,0
2016-02-28T17:28:21.435Z,0
2016-02-28T17:29:21.345Z,0
2016-02-28T17:30:21.190Z,0
2016-02-28T17:31:21.318Z,0
2016-02-28T17:32:21.368Z,0
2016-02-28T17:33:21.152Z,0
2016-02-28T17:34:21.342Z,0
2016-02-28T17:35:21.298Z,0
2016-02-28T17:36:21.284Z,0
2016-02-28T17:37:21.287Z,0
2016-02-28T17:38:21.259Z,0
2016-02-28T17:39:21.247Z,0
2016-02-28T17:40:21.217Z,0
2016-02-28T17:41:21.314Z,0
2016-02-28T17:42:21.207Z,0
2016-02-28T17:43:20.507Z,0
2016-02-28T17:44:21.197Z,0
2016-02-28T17:45:21.168Z,0
2016-02-28T17:46:21.155Z,0
2016-02-28T17:47:21.158Z,0
2016-02-28T17:48:21.208Z,0
2016-02-28T17:49:21.149Z,0
2016-02-28T17:50:21.166Z,0
2016-02-28T17:51:21.107Z,0
2016-02-28T17:52:21.125Z,0
2016-02-28T17:53:20.363Z,0
2016-02-28T17:54:21.255Z,0
2016-02-28T17:55:21.070Z,0
2016-02-28T17:56:21.057Z,0
2016-02-28T17:57:21.045Z,0
2016-02-28T17:58:21.079Z,0
2016-02-28T17:59:21.035Z,0
2016-02-28T18:00:21.053Z,0
2016-02-28T18:01:21.071Z,0
2016-02-28T18:20:07.341Z,0
2016-02-28T18:21:07.390Z,0
2016-02-28T18:22:07.300Z,0
2016-02-28T18:23:07.302Z,0
2016-02-28T18:24:07.289Z,0
2016-02-28T18:25:07.260Z,0
2016-02-28T18:26:07.279Z,0
2016-02-28T18:27:07.218Z,0
2016-02-28T18:28:07.190Z,0
2016-02-28T18:29:07.194Z,0
2016-02-28T18:30:07.196Z,0
2016-02-28T18:31:07.152Z,0
2016-02-28T18:32:07.233Z,0
2016-02-28T18:33:07.141Z,0
2016-02-28T18:34:07.113Z,0
2016-02-28T18:35:07.148Z,0
2016-02-28T18:50:06.952Z,0
2016-02-28T18:51:06.894Z,0
2016-02-28T18:52:06.864Z,0
2016-02-28T18:53:06.899Z,0
2016-02-28T18:54:06.823Z,0
2016-02-28T18:55:06.826Z,0
2016-02-28T18:56:06.812Z,0
2016-02-28T18:57:06.816Z,0
2016-02-28T18:58:06.834Z,0
2016-02-28T18:59:06.852Z,0
2016-02-28T19:00:06.807Z,0
2016-02-28T19:01:06.748Z,0
2016-02-28T19:02:06.751Z,0
2016-02-28T19:03:06.723Z,0
2016-02-28T19:04:06.600Z,0
2016-02-28T19:05:06.681Z,0
2016-02-28T19:20:54.630Z,0
2016-02-28T19:21:54.617Z,0
2016-02-28T19:22:54.573Z,0
2016-02-28T19:23:54.575Z,0
2016-02-28T19:24:54.546Z,0
2016-02-28T19:25:54.534Z,0
2016-02-28T19:26:54.568Z,0
2016-02-28T19:27:54.508Z,0
2016-02-28T19:28:54.495Z,0
2016-02-28T19:29:54.482Z,0
2016-02-28T19:30:54.485Z,0
2016-02-28T19:31:54.457Z,0
2016-02-28T19:32:54.474Z,0
2016-02-28T19:33:54.431Z,0
2016-02-28T19:34:54.433Z,0
2016-02-28T19:35:54.404Z,0
2016-02-28T19:51:24.117Z,0
2016-02-28T19:52:24.105Z,0
2016-02-28T19:53:24.044Z,0
2016-02-28T19:54:24.031Z,0
2016-02-28T19:55:24.127Z,0
2016-02-28T19:56:24.021Z,0
2016-02-28T19:57:23.993Z,0
2016-02-28T19:58:23.996Z,0
2016-02-28T19:59:23.966Z,0
2016-02-28T20:00:23.954Z,0
2016-02-28T20:01:23.941Z,0
2016-02-28T20:02:23.959Z,0
2016-02-28T20:03:23.930Z,0
2016-02-28T20:04:23.902Z,0
2016-02-28T20:05:23.920Z,0
2016-02-28T20:20:30.746Z,0
2016-02-28T20:21:30.623Z,0
2016-02-28T20:22:30.720Z,0
2016-02-28T20:23:30.738Z,0
2016-02-28T20:24:30.709Z,0
2016-02-28T20:25:30.681Z,0
2016-02-28T20:26:30.684Z,0
2016-02-28T20:27:30.640Z,0
2016-02-28T20:28:30.642Z,0
2016-02-28T20:29:30.614Z,0
2016-02-28T20:30:30.554Z,0
2016-02-28T20:31:30.587Z,0
2016-02-28T20:32:30.575Z,0
2016-02-28T20:33:30.546Z,0
2016-02-28T20:34:30.580Z,0
2016-02-28T20:52:30.662Z,0
2016-02-28T20:53:30.649Z,0
2016-02-28T20:54:30.636Z,0
2016-02-28T20:55:30.607Z,0
2016-02-28T20:56:30.595Z,0
2016-02-28T20:57:30.566Z,0
2016-02-28T20:58:30.569Z,0
2016-02-28T20:59:30.572Z,0
2016-02-28T21:00:30.542Z,0
2016-02-28T21:01:30.531Z,0
2016-02-28T21:02:30.517Z,0
2016-02-28T21:03:30.582Z,0
2016-02-28T21:04:30.491Z,0
2016-02-28T21:05:30.322Z,0
2016-02-28T21:21:51.493Z,0
2016-02-28T21:22:51.480Z,0
2016-02-28T21:23:51.451Z,0
2016-02-28T21:24:51.437Z,0
2016-02-28T21:25:51.426Z,0
2016-02-28T21:26:51.412Z,0
2016-02-28T21:27:51.431Z,0
2016-02-28T21:28:51.402Z,0
2016-02-28T21:29:51.373Z,0
2016-02-28T21:30:51.360Z,0
2016-02-28T21:31:51.348Z,0
2016-02-28T21:32:51.319Z,0
2016-02-28T21:33:51.321Z,0
2016-02-28T21:34:51.153Z,0
2016-02-28T21:35:51.296Z,0
2016-02-28T21:51:07.476Z,0
2016-02-28T21:52:07.448Z,0
2016-02-28T21:53:07.435Z,0
2016-02-28T21:54:07.438Z,0
2016-02-28T21:55:07.393Z,0
2016-02-28T21:56:07.428Z,0
2016-02-28T21:57:07.384Z,0
2016-02-28T21:58:07.371Z,0
2016-02-28T21:59:07.342Z,0
2016-02-28T22:00:07.329Z,0
2016-02-28T22:01:07.317Z,0
2016-02-28T22:02:07.303Z,0
2016-02-28T22:03:07.290Z,0
2016-02-28T22:04:07.559Z,0
2016-02-28T22:05:07.265Z,0
2016-02-28T22:21:57.013Z,0
2016-02-28T22:22:56.985Z,0
2016-02-28T22:23:56.988Z,0
2016-02-28T22:24:56.959Z,0
2016-02-28T22:25:56.946Z,0
2016-02-28T22:26:56.918Z,0
2016-02-28T22:27:56.936Z,0
2016-02-28T22:28:56.892Z,0
2016-02-28T22:29:56.879Z,0
2016-02-28T22:30:56.898Z,0
2016-02-28T22:31:56.853Z,0
2016-02-28T22:32:56.856Z,0
2016-02-28T22:33:56.811Z,0
2016-02-28T22:50:02.011Z,0
2016-02-28T22:51:01.966Z,0
2016-02-28T22:52:01.954Z,0
2016-02-28T22:53:01.784Z,0
2016-02-28T22:54:01.913Z,0
2016-02-28T22:55:01.915Z,0
2016-02-28T22:56:01.887Z,0
2016-02-28T22:57:01.857Z,0
2016-02-28T22:58:01.860Z,0
2016-02-28T22:59:01.847Z,0
2016-02-28T23:00:01.834Z,0
2016-02-28T23:01:01.821Z,0
2016-02-28T23:02:01.809Z,0
2016-02-28T23:03:01.781Z,0
2016-02-28T23:04:01.767Z,0
2016-02-28T23:20:12.044Z,0
2016-02-28T23:21:12.032Z,0
2016-02-28T23:22:11.988Z,0
2016-02-28T23:23:12.021Z,0
2016-02-28T23:24:11.977Z,0
2016-02-28T23:25:11.965Z,0
2016-02-28T23:26:11.826Z,0
2016-02-28T23:27:11.922Z,0
2016-02-28T23:28:11.926Z,0
2016-02-28T23:29:11.896Z,0
2016-02-28T23:30:11.884Z,0
2016-02-28T23:31:11.856Z,0
2016-02-28T23:32:11.842Z,0
2016-02-28T23:33:11.673Z,0
2016-02-28T23:34:11.801Z,0
2016-02-28T23:50:25.016Z,0
2016-02-28T23:51:24.972Z,0
2016-02-28T23:52:24.990Z,0
2016-02-28T23:53:24.946Z,0
2016-02-28T23:54:24.933Z,0
2016-02-28T23:55:24.920Z,0
2016-02-28T23:56:24.907Z,0
2016-02-28T23:57:24.894Z,0
2016-02-28T23:58:24.849Z,0
2016-02-28T23:59:24.868Z,0
